TPC5711 KBOI-KPDX
Flight info
| Callsign | TPC5711 |
|---|---|
| Flight time | 0h 56m |
| Altitude | 36000 |
| Route | DCT SAILL DCT BUEEL DCT JOTBA HHOOD6 |
| Aircraft | B737/M-SDE2E3FGHIRWXY/LB1 |
Departure
| Time | 2026-05-07 05:37 |
|---|---|
| Airport | Boise Air Terminal/Gowen Field (KBOI) |
Arrival
| Time | 2026-05-07 06:34 |
|---|---|
| Airport | Portland International Airport (KPDX) |
| Time | Latitude | Longitude | Altitude | Speed | Heading |
|---|---|---|---|---|---|
| 2026-05-07 05:07 | 43.56682 | -116.21922 | 2853 ft | 0 kts | 25° |
| 2026-05-07 05:24 | 43.56678 | -116.21925 | 2857 ft | 3 kts | 25° |
| 2026-05-07 05:24 | 43.56654 | -116.21940 | 2853 ft | 4 kts | 24° |
| 2026-05-07 05:25 | 43.56631 | -116.21947 | 2853 ft | 4 kts | 342° |
| 2026-05-07 05:25 | 43.56613 | -116.21931 | 2854 ft | 1 kts | 297° |
| 2026-05-07 05:31 | 43.56615 | -116.21936 | 2856 ft | 5 kts | 293° |
| 2026-05-07 05:31 | 43.56625 | -116.22023 | 2856 ft | 11 kts | 275° |
| 2026-05-07 05:32 | 43.56631 | -116.22139 | 2853 ft | 14 kts | 273° |
| 2026-05-07 05:32 | 43.56664 | -116.22289 | 2850 ft | 17 kts | 296° |
| 2026-05-07 05:32 | 43.56713 | -116.22434 | 2849 ft | 16 kts | 294° |
| 2026-05-07 05:32 | 43.56760 | -116.22573 | 2845 ft | 16 kts | 295° |
| 2026-05-07 05:33 | 43.56810 | -116.22719 | 2845 ft | 17 kts | 295° |
| 2026-05-07 05:33 | 43.56870 | -116.22895 | 2841 ft | 24 kts | 295° |
| 2026-05-07 05:33 | 43.56941 | -116.23103 | 2841 ft | 24 kts | 295° |
| 2026-05-07 05:33 | 43.57012 | -116.23310 | 2839 ft | 23 kts | 295° |
| 2026-05-07 05:34 | 43.57079 | -116.23506 | 2841 ft | 23 kts | 296° |
| 2026-05-07 05:34 | 43.57112 | -116.23638 | 2842 ft | 9 kts | 276° |
| 2026-05-07 05:34 | 43.57106 | -116.23758 | 2843 ft | 17 kts | 261° |
| 2026-05-07 05:34 | 43.57080 | -116.23965 | 2843 ft | 20 kts | 257° |
| 2026-05-07 05:35 | 43.57062 | -116.24059 | 2843 ft | 6 kts | 258° |
| 2026-05-07 05:35 | 43.57037 | -116.24170 | 2841 ft | 15 kts | 232° |
| 2026-05-07 05:35 | 43.56967 | -116.24142 | 2843 ft | 6 kts | 113° |
| 2026-05-07 05:35 | 43.56965 | -116.24137 | 2843 ft | 0 kts | 114° |
| 2026-05-07 05:36 | 43.56964 | -116.24135 | 2843 ft | 6 kts | 114° |
| 2026-05-07 05:36 | 43.56833 | -116.23752 | 2847 ft | 83 kts | 115° |
| 2026-05-07 05:36 | 43.56483 | -116.22730 | 2855 ft | 149 kts | 114° |
| 2026-05-07 05:37 | 43.55973 | -116.21231 | 3084 ft | 188 kts | 115° |
| 2026-05-07 05:37 | 43.55365 | -116.19521 | 3805 ft | 202 kts | 115° |
| 2026-05-07 05:37 | 43.54768 | -116.17771 | 4740 ft | 208 kts | 115° |
| 2026-05-07 05:37 | 43.54109 | -116.15809 | 5054 ft | 244 kts | 115° |
| 2026-05-07 05:38 | 43.53346 | -116.13535 | 5375 ft | 277 kts | 114° |
| 2026-05-07 05:38 | 43.52522 | -116.11071 | 6209 ft | 287 kts | 115° |
| 2026-05-07 05:38 | 43.51682 | -116.08555 | 7173 ft | 291 kts | 115° |
| 2026-05-07 05:38 | 43.50818 | -116.06004 | 8085 ft | 298 kts | 117° |
| 2026-05-07 05:39 | 43.49522 | -116.03763 | 8986 ft | 305 kts | 143° |
| 2026-05-07 05:39 | 43.47639 | -116.02467 | 9950 ft | 305 kts | 169° |
| 2026-05-07 05:39 | 43.45522 | -116.02312 | 10603 ft | 312 kts | 192° |
| 2026-05-07 05:39 | 43.43424 | -116.03337 | 10826 ft | 332 kts | 216° |
| 2026-05-07 05:40 | 43.41680 | -116.05520 | 11043 ft | 350 kts | 236° |
| 2026-05-07 05:40 | 43.40289 | -116.08382 | 11370 ft | 367 kts | 241° |
| 2026-05-07 05:40 | 43.39407 | -116.10393 | 11811 ft | 372 kts | 243° |
| 2026-05-07 05:40 | 43.38494 | -116.14873 | 12943 ft | 366 kts | 273° |
| 2026-05-07 05:41 | 43.38784 | -116.17145 | 13575 ft | 365 kts | 288° |
| 2026-05-07 05:41 | 43.39837 | -116.20323 | 14392 ft | 367 kts | 296° |
| 2026-05-07 05:41 | 43.41016 | -116.23451 | 15121 ft | 371 kts | 297° |
| 2026-05-07 05:41 | 43.42210 | -116.26619 | 15692 ft | 374 kts | 297° |
| 2026-05-07 05:42 | 43.43398 | -116.29796 | 15965 ft | 376 kts | 297° |
| 2026-05-07 05:42 | 43.44591 | -116.33015 | 15972 ft | 377 kts | 296° |
| 2026-05-07 05:42 | 43.45769 | -116.36222 | 15995 ft | 376 kts | 296° |
| 2026-05-07 05:42 | 43.46944 | -116.39443 | 16010 ft | 376 kts | 296° |
| 2026-05-07 05:43 | 43.48114 | -116.42664 | 16013 ft | 376 kts | 296° |
| 2026-05-07 05:43 | 43.49282 | -116.45890 | 16016 ft | 377 kts | 296° |
| 2026-05-07 05:43 | 43.50450 | -116.49121 | 16020 ft | 377 kts | 296° |
| 2026-05-07 05:43 | 43.51616 | -116.52352 | 16019 ft | 377 kts | 296° |
| 2026-05-07 05:44 | 43.52782 | -116.55585 | 16017 ft | 377 kts | 296° |
| 2026-05-07 05:44 | 43.53955 | -116.58843 | 16360 ft | 382 kts | 296° |
| 2026-05-07 05:44 | 43.55131 | -116.62115 | 17247 ft | 380 kts | 296° |
| 2026-05-07 05:44 | 43.56303 | -116.65378 | 18090 ft | 380 kts | 296° |
| 2026-05-07 05:45 | 43.57479 | -116.68654 | 18728 ft | 383 kts | 296° |
| 2026-05-07 05:45 | 43.58667 | -116.71967 | 19295 ft | 387 kts | 297° |
| 2026-05-07 05:45 | 43.59862 | -116.75307 | 19865 ft | 391 kts | 297° |
| 2026-05-07 05:45 | 43.61071 | -116.78686 | 20441 ft | 394 kts | 297° |
| 2026-05-07 05:46 | 43.62267 | -116.82035 | 20996 ft | 397 kts | 297° |
| 2026-05-07 05:46 | 43.63490 | -116.85464 | 21530 ft | 400 kts | 297° |
| 2026-05-07 05:46 | 43.64724 | -116.88928 | 22058 ft | 404 kts | 297° |
| 2026-05-07 05:46 | 43.65965 | -116.92418 | 22566 ft | 407 kts | 297° |
| 2026-05-07 05:47 | 43.67216 | -116.95938 | 23058 ft | 410 kts | 297° |
| 2026-05-07 05:47 | 43.68476 | -116.99491 | 23535 ft | 413 kts | 297° |
| 2026-05-07 05:47 | 43.69742 | -117.03062 | 23935 ft | 416 kts | 297° |
| 2026-05-07 05:47 | 43.71017 | -117.06663 | 24336 ft | 418 kts | 297° |
| 2026-05-07 05:48 | 43.72297 | -117.10285 | 24729 ft | 421 kts | 297° |
| 2026-05-07 05:48 | 43.73536 | -117.13962 | 25168 ft | 423 kts | 295° |
| 2026-05-07 05:48 | 43.74719 | -117.17705 | 25531 ft | 426 kts | 295° |
| 2026-05-07 05:48 | 43.75888 | -117.21485 | 25835 ft | 430 kts | 295° |
| 2026-05-07 05:49 | 43.77067 | -117.25305 | 26178 ft | 433 kts | 295° |
| 2026-05-07 05:49 | 43.78255 | -117.29132 | 26544 ft | 434 kts | 295° |
| 2026-05-07 05:49 | 43.79455 | -117.32976 | 26897 ft | 436 kts | 295° |
| 2026-05-07 05:49 | 43.80665 | -117.36842 | 27210 ft | 439 kts | 295° |
| 2026-05-07 05:50 | 43.81880 | -117.40719 | 27514 ft | 441 kts | 295° |
| 2026-05-07 05:50 | 43.83104 | -117.44630 | 27823 ft | 442 kts | 295° |
| 2026-05-07 05:50 | 43.84321 | -117.48527 | 28225 ft | 441 kts | 295° |
| 2026-05-07 05:50 | 43.85537 | -117.52421 | 28696 ft | 439 kts | 296° |
| 2026-05-07 05:51 | 43.86742 | -117.56293 | 29178 ft | 438 kts | 296° |
| 2026-05-07 05:51 | 43.87999 | -117.60124 | 29631 ft | 436 kts | 300° |
| 2026-05-07 05:51 | 43.89560 | -117.63712 | 30080 ft | 434 kts | 304° |
| 2026-05-07 05:51 | 43.91197 | -117.67217 | 30529 ft | 432 kts | 305° |
| 2026-05-07 05:52 | 43.92824 | -117.70680 | 31105 ft | 426 kts | 305° |
| 2026-05-07 05:52 | 43.94433 | -117.74115 | 31571 ft | 424 kts | 305° |
| 2026-05-07 05:52 | 43.96036 | -117.77552 | 31924 ft | 425 kts | 305° |
| 2026-05-07 05:52 | 43.97639 | -117.81008 | 32288 ft | 425 kts | 305° |
| 2026-05-07 05:53 | 43.99231 | -117.84454 | 32682 ft | 424 kts | 305° |
| 2026-05-07 05:53 | 44.00814 | -117.87895 | 33106 ft | 422 kts | 305° |
| 2026-05-07 05:53 | 44.02392 | -117.91332 | 33498 ft | 421 kts | 305° |
| 2026-05-07 05:53 | 44.03964 | -117.94762 | 33851 ft | 420 kts | 305° |
| 2026-05-07 05:54 | 44.05529 | -117.98180 | 34310 ft | 416 kts | 305° |
| 2026-05-07 05:54 | 44.07068 | -118.01549 | 34799 ft | 411 kts | 305° |
| 2026-05-07 05:54 | 44.08577 | -118.04855 | 35107 ft | 411 kts | 306° |
| 2026-05-07 05:54 | 44.10108 | -118.08210 | 35350 ft | 411 kts | 306° |
| 2026-05-07 05:55 | 44.11640 | -118.11570 | 35585 ft | 412 kts | 306° |
| 2026-05-07 05:55 | 44.13171 | -118.14931 | 35857 ft | 411 kts | 306° |
| 2026-05-07 05:55 | 44.14700 | -118.18290 | 36045 ft | 412 kts | 306° |
| 2026-05-07 05:56 | 44.17772 | -118.25058 | 36027 ft | 414 kts | 306° |
| 2026-05-07 05:56 | 44.20823 | -118.31792 | 36058 ft | 413 kts | 305° |
| 2026-05-07 05:57 | 44.23885 | -118.38576 | 36082 ft | 414 kts | 305° |
| 2026-05-07 05:57 | 44.26951 | -118.45380 | 36072 ft | 414 kts | 306° |
| 2026-05-07 05:58 | 44.30015 | -118.52194 | 36090 ft | 414 kts | 305° |
| 2026-05-07 05:58 | 44.33073 | -118.59009 | 36075 ft | 416 kts | 305° |
| 2026-05-07 05:59 | 44.36140 | -118.65862 | 36099 ft | 417 kts | 305° |
| 2026-05-07 05:59 | 44.39214 | -118.72746 | 36097 ft | 418 kts | 305° |
| 2026-05-07 06:00 | 44.42286 | -118.79646 | 36099 ft | 418 kts | 305° |
| 2026-05-07 06:00 | 44.45353 | -118.86549 | 36091 ft | 418 kts | 305° |
| 2026-05-07 06:01 | 44.48418 | -118.93464 | 36094 ft | 418 kts | 305° |
| 2026-05-07 06:01 | 44.51456 | -119.00335 | 36093 ft | 418 kts | 305° |
| 2026-05-07 06:02 | 44.54510 | -119.07255 | 36081 ft | 417 kts | 304° |
| 2026-05-07 06:02 | 44.57557 | -119.14172 | 36101 ft | 416 kts | 304° |
| 2026-05-07 06:03 | 44.60570 | -119.21043 | 36076 ft | 416 kts | 304° |
| 2026-05-07 06:03 | 44.63602 | -119.27969 | 36082 ft | 416 kts | 304° |
| 2026-05-07 06:04 | 44.66624 | -119.34887 | 36080 ft | 415 kts | 304° |
| 2026-05-07 06:04 | 44.69641 | -119.41810 | 36074 ft | 416 kts | 304° |
| 2026-05-07 06:05 | 44.72655 | -119.48740 | 36082 ft | 415 kts | 304° |
| 2026-05-07 06:05 | 44.75664 | -119.55679 | 36075 ft | 415 kts | 304° |
| 2026-05-07 06:06 | 44.78666 | -119.62618 | 36082 ft | 415 kts | 304° |
| 2026-05-07 06:06 | 44.81665 | -119.69568 | 36074 ft | 415 kts | 303° |
| 2026-05-07 06:07 | 44.84654 | -119.76511 | 36072 ft | 415 kts | 304° |
| 2026-05-07 06:07 | 44.87643 | -119.83470 | 36061 ft | 415 kts | 303° |
| 2026-05-07 06:08 | 44.90627 | -119.90433 | 36047 ft | 415 kts | 303° |
| 2026-05-07 06:08 | 44.93609 | -119.97412 | 36067 ft | 416 kts | 303° |
| 2026-05-07 06:09 | 44.96596 | -120.04417 | 36066 ft | 416 kts | 303° |
| 2026-05-07 06:09 | 44.99564 | -120.11399 | 36070 ft | 416 kts | 303° |
| 2026-05-07 06:10 | 45.02516 | -120.18360 | 35669 ft | 407 kts | 303° |
| 2026-05-07 06:10 | 45.03973 | -120.21800 | 34871 ft | 409 kts | 302° |
| 2026-05-07 06:10 | 45.05443 | -120.25274 | 33890 ft | 416 kts | 302° |
| 2026-05-07 06:10 | 45.06938 | -120.28813 | 32759 ft | 422 kts | 302° |
| 2026-05-07 06:11 | 45.08454 | -120.32404 | 31691 ft | 427 kts | 302° |
| 2026-05-07 06:11 | 45.09980 | -120.36028 | 30653 ft | 430 kts | 302° |
| 2026-05-07 06:11 | 45.11491 | -120.39620 | 29625 ft | 431 kts | 302° |
| 2026-05-07 06:11 | 45.13023 | -120.43267 | 28378 ft | 433 kts | 302° |
| 2026-05-07 06:12 | 45.14565 | -120.46941 | 27065 ft | 436 kts | 302° |
| 2026-05-07 06:12 | 45.16120 | -120.50648 | 25715 ft | 439 kts | 302° |
| 2026-05-07 06:12 | 45.17661 | -120.54378 | 24601 ft | 438 kts | 300° |
| 2026-05-07 06:12 | 45.19130 | -120.58136 | 23696 ft | 433 kts | 299° |
| 2026-05-07 06:13 | 45.20550 | -120.61855 | 22732 ft | 425 kts | 299° |
| 2026-05-07 06:13 | 45.21942 | -120.65516 | 21791 ft | 418 kts | 298° |
| 2026-05-07 06:13 | 45.23309 | -120.69106 | 21248 ft | 405 kts | 298° |
| 2026-05-07 06:13 | 45.24628 | -120.72558 | 21000 ft | 395 kts | 298° |
| 2026-05-07 06:14 | 45.25958 | -120.76028 | 20756 ft | 406 kts | 298° |
| 2026-05-07 06:14 | 45.27318 | -120.79573 | 20518 ft | 410 kts | 298° |
| 2026-05-07 06:14 | 45.28679 | -120.83122 | 20278 ft | 408 kts | 298° |
| 2026-05-07 06:14 | 45.30030 | -120.86650 | 20030 ft | 406 kts | 298° |
| 2026-05-07 06:15 | 45.31375 | -120.90165 | 19791 ft | 404 kts | 298° |
| 2026-05-07 06:15 | 45.32714 | -120.93671 | 19558 ft | 403 kts | 298° |
| 2026-05-07 06:15 | 45.34057 | -120.97156 | 19275 ft | 401 kts | 300° |
| 2026-05-07 06:15 | 45.35414 | -121.00561 | 19082 ft | 389 kts | 297° |
| 2026-05-07 06:16 | 45.36653 | -121.03914 | 18835 ft | 376 kts | 297° |
| 2026-05-07 06:16 | 45.37848 | -121.07117 | 18600 ft | 359 kts | 297° |
| 2026-05-07 06:16 | 45.38907 | -121.10254 | 18359 ft | 345 kts | 291° |
| 2026-05-07 06:16 | 45.39684 | -121.13415 | 18092 ft | 333 kts | 288° |
| 2026-05-07 06:17 | 45.40365 | -121.16519 | 17827 ft | 326 kts | 287° |
| 2026-05-07 06:17 | 45.41034 | -121.19588 | 17572 ft | 324 kts | 287° |
| 2026-05-07 06:17 | 45.41717 | -121.22657 | 17154 ft | 327 kts | 288° |
| 2026-05-07 06:17 | 45.42410 | -121.25713 | 16679 ft | 323 kts | 288° |
| 2026-05-07 06:18 | 45.43097 | -121.28700 | 16183 ft | 320 kts | 288° |
| 2026-05-07 06:18 | 45.43801 | -121.31737 | 15672 ft | 318 kts | 288° |
| 2026-05-07 06:18 | 45.44483 | -121.34678 | 15184 ft | 316 kts | 288° |
| 2026-05-07 06:18 | 45.45175 | -121.37663 | 14935 ft | 306 kts | 288° |
| 2026-05-07 06:19 | 45.45821 | -121.40453 | 14645 ft | 300 kts | 288° |
| 2026-05-07 06:19 | 45.46473 | -121.43277 | 14193 ft | 299 kts | 288° |
| 2026-05-07 06:19 | 45.47121 | -121.46086 | 13724 ft | 298 kts | 288° |
| 2026-05-07 06:19 | 45.47755 | -121.48831 | 13294 ft | 293 kts | 288° |
| 2026-05-07 06:20 | 45.48395 | -121.51618 | 12822 ft | 290 kts | 288° |
| 2026-05-07 06:20 | 45.49014 | -121.54309 | 12384 ft | 288 kts | 288° |
| 2026-05-07 06:20 | 45.49636 | -121.57017 | 11926 ft | 287 kts | 288° |
| 2026-05-07 06:20 | 45.50255 | -121.59716 | 11509 ft | 285 kts | 288° |
| 2026-05-07 06:21 | 45.50869 | -121.62395 | 11070 ft | 284 kts | 288° |
| 2026-05-07 06:21 | 45.51480 | -121.65066 | 10630 ft | 283 kts | 288° |
| 2026-05-07 06:21 | 45.52083 | -121.67707 | 10439 ft | 275 kts | 287° |
| 2026-05-07 06:21 | 45.52665 | -121.70258 | 10283 ft | 265 kts | 287° |
| 2026-05-07 06:22 | 45.53072 | -121.72775 | 10074 ft | 258 kts | 277° |
| 2026-05-07 06:22 | 45.53276 | -121.77825 | 9364 ft | 253 kts | 273° |
| 2026-05-07 06:22 | 45.53352 | -121.80333 | 8935 ft | 254 kts | 274° |
| 2026-05-07 06:23 | 45.53437 | -121.82820 | 8644 ft | 247 kts | 273° |
| 2026-05-07 06:23 | 45.53532 | -121.85259 | 8306 ft | 245 kts | 274° |
| 2026-05-07 06:23 | 45.53629 | -121.87690 | 7945 ft | 246 kts | 274° |
| 2026-05-07 06:23 | 45.53724 | -121.90114 | 7579 ft | 244 kts | 275° |
| 2026-05-07 06:24 | 45.53817 | -121.92497 | 7449 ft | 236 kts | 274° |
| 2026-05-07 06:24 | 45.53909 | -121.94809 | 7204 ft | 232 kts | 273° |
| 2026-05-07 06:24 | 45.53944 | -121.97071 | 7023 ft | 223 kts | 274° |
| 2026-05-07 06:24 | 45.54043 | -121.99254 | 6847 ft | 216 kts | 275° |
| 2026-05-07 06:25 | 45.54139 | -122.01325 | 6788 ft | 204 kts | 275° |
| 2026-05-07 06:25 | 45.54204 | -122.03341 | 6688 ft | 204 kts | 266° |
| 2026-05-07 06:25 | 45.53679 | -122.05241 | 6610 ft | 215 kts | 238° |
| 2026-05-07 06:25 | 45.52800 | -122.07007 | 6467 ft | 219 kts | 237° |
| 2026-05-07 06:26 | 45.51916 | -122.08782 | 6329 ft | 220 kts | 237° |
| 2026-05-07 06:26 | 45.51028 | -122.10561 | 6220 ft | 221 kts | 238° |
| 2026-05-07 06:26 | 45.50134 | -122.12351 | 6086 ft | 222 kts | 237° |
| 2026-05-07 06:26 | 45.49236 | -122.14152 | 5972 ft | 223 kts | 238° |
| 2026-05-07 06:27 | 45.48344 | -122.15936 | 5817 ft | 219 kts | 237° |
| 2026-05-07 06:27 | 45.47508 | -122.17707 | 5677 ft | 213 kts | 247° |
| 2026-05-07 06:27 | 45.47231 | -122.19743 | 5470 ft | 214 kts | 269° |
| 2026-05-07 06:27 | 45.47218 | -122.21870 | 5216 ft | 217 kts | 269° |
| 2026-05-07 06:28 | 45.47211 | -122.24025 | 4961 ft | 219 kts | 269° |
| 2026-05-07 06:28 | 45.47203 | -122.26192 | 4674 ft | 218 kts | 269° |
| 2026-05-07 06:28 | 45.47192 | -122.28350 | 4415 ft | 218 kts | 269° |
| 2026-05-07 06:28 | 45.47263 | -122.30497 | 4123 ft | 219 kts | 284° |
| 2026-05-07 06:29 | 45.47994 | -122.32390 | 3897 ft | 218 kts | 301° |
| 2026-05-07 06:29 | 45.48495 | -122.33598 | 3890 ft | 210 kts | 296° |
| 2026-05-07 06:29 | 45.49204 | -122.35473 | 3655 ft | 213 kts | 296° |
| 2026-05-07 06:29 | 45.49900 | -122.37308 | 3381 ft | 214 kts | 297° |
| 2026-05-07 06:30 | 45.50614 | -122.39169 | 3092 ft | 213 kts | 297° |
| 2026-05-07 06:30 | 45.51321 | -122.40997 | 2800 ft | 209 kts | 298° |
| 2026-05-07 06:30 | 45.52017 | -122.42801 | 2531 ft | 205 kts | 299° |
| 2026-05-07 06:30 | 45.52693 | -122.44551 | 2246 ft | 199 kts | 300° |
| 2026-05-07 06:31 | 45.53339 | -122.46224 | 1988 ft | 186 kts | 301° |
| 2026-05-07 06:31 | 45.53947 | -122.47796 | 1732 ft | 176 kts | 301° |
| 2026-05-07 06:31 | 45.54526 | -122.49288 | 1472 ft | 168 kts | 300° |
| 2026-05-07 06:31 | 45.55067 | -122.50689 | 1275 ft | 157 kts | 300° |
| 2026-05-07 06:32 | 45.55572 | -122.51993 | 1088 ft | 143 kts | 301° |
| 2026-05-07 06:32 | 45.56032 | -122.53181 | 857 ft | 133 kts | 300° |
| 2026-05-07 06:32 | 45.56474 | -122.54323 | 696 ft | 129 kts | 302° |
| 2026-05-07 06:32 | 45.56902 | -122.55426 | 524 ft | 124 kts | 301° |
| 2026-05-07 06:33 | 45.57310 | -122.56485 | 348 ft | 121 kts | 299° |
| 2026-05-07 06:33 | 45.57714 | -122.57544 | 215 ft | 123 kts | 300° |
| 2026-05-07 06:33 | 45.58126 | -122.58598 | 52 ft | 119 kts | 302° |
| 2026-05-07 06:33 | 45.58498 | -122.59534 | 32 ft | 94 kts | 299° |
| 2026-05-07 06:34 | 45.58689 | -122.60029 | 35 ft | 25 kts | 299° |
| 2026-05-07 06:34 | 45.58798 | -122.60181 | 32 ft | 17 kts | 331° |
| 2026-05-07 06:34 | 45.58871 | -122.60230 | 30 ft | 0 kts | 340° |
| 2026-05-07 06:35 | 45.58876 | -122.60230 | 32 ft | 2 kts | 354° |
| 2026-05-07 06:35 | 45.58882 | -122.60212 | 32 ft | 3 kts | 93° |
| 2026-05-07 06:36 | 45.58867 | -122.60163 | 32 ft | 6 kts | 114° |
| 2026-05-07 06:36 | 45.58840 | -122.60094 | 35 ft | 10 kts | 120° |
| 2026-05-07 06:36 | 45.58811 | -122.59980 | 34 ft | 14 kts | 85° |
| 2026-05-07 06:36 | 45.58810 | -122.59829 | 33 ft | 16 kts | 123° |
| 2026-05-07 06:37 | 45.58772 | -122.59716 | 35 ft | 6 kts | 113° |
| 2026-05-07 06:37 | 45.58766 | -122.59679 | 35 ft | 5 kts | 97° |
| 2026-05-07 06:37 | 45.58787 | -122.59616 | 34 ft | 8 kts | 41° |
| 2026-05-07 06:37 | 45.58817 | -122.59584 | 33 ft | 0 kts | 36° |